Time;durP1;ratioP1;P1;durP2;ratioP2;P2;SDS_P1;SDS_P2;PMS_P1;PMS_P2;Temp;Humidity;BMP_temperature;BMP_pressure;BME280_temperature;BME280_humidity;BME280_pressure;Samples;Min_cycle;Max_cycle;Signal;HPM_P1;HPM_P2
2023/12/18 00:00:54;;;;;;;;;;;6.00;99.90;;;;;;2617745;47;19947;-72
2023/12/18 00:03:24;;;;;;;;;;;6.00;99.90;;;;;;2617074;39;20001;-74
2023/12/18 00:05:53;;;;;;;;;;;6.00;99.90;;;;;;2617082;46;20072;-74
2023/12/18 00:08:23;;;;;;;;;;;6.00;99.90;;;;;;2617395;47;20089;-73
2023/12/18 00:10:53;;;;;;;;;;;6.00;99.90;;;;;;2615626;54;19938;-73
2023/12/18 00:13:25;;;;;;;;;;;6.00;99.90;;;;;;2617810;54;20034;-74
2023/12/18 00:15:55;;;;;;;;;;;5.90;99.90;;;;;;2617699;54;19951;-74
2023/12/18 00:18:24;;;;;;;;;;;5.80;99.90;;;;;;2617181;54;19946;-74
2023/12/18 00:20:54;;;;;;;;;;;5.80;99.90;;;;;;2617212;54;19945;-73
2023/12/18 00:23:24;;;;;;;;;;;5.80;99.90;;;;;;2619277;47;19987;-73
2023/12/18 00:25:53;;;;;;;;;;;5.80;99.90;;;;;;2617946;54;20446;-74
2023/12/18 00:28:26;;;;;;;;;;;5.80;99.90;;;;;;2616758;46;19951;-74
2023/12/18 00:30:56;;;;;;;;;;;5.80;99.90;;;;;;2617984;39;20368;-74
2023/12/18 00:33:26;;;;;;;;;;;5.80;99.90;;;;;;2617223;54;19946;-72
2023/12/18 00:35:56;;;;;;;;;;;5.80;99.90;;;;;;2616946;47;20086;-73
2023/12/18 00:38:26;;;;;;;;;;;5.70;99.90;;;;;;2618148;47;19947;-73
2023/12/18 00:40:56;;;;;;;;;;;5.70;99.90;;;;;;2616146;47;19950;-74
2023/12/18 00:43:28;;;;;;;;;;;6.10;99.90;;;;;;2613736;47;19958;-73
2023/12/18 00:45:58;;;;;;;;;;;5.60;99.90;;;;;;2616960;54;19939;-73
2023/12/18 00:48:28;;;;;;;;;;;5.60;99.90;;;;;;2616644;47;20433;-73
2023/12/18 00:50:57;;;;;;;;;;;5.50;99.90;;;;;;2617508;47;19990;-73
2023/12/18 00:53:27;;;;;;;;;;;5.50;99.90;;;;;;2615975;54;19957;-73
2023/12/18 00:55:57;;;;;;;;;;;5.50;99.90;;;;;;2616397;47;19962;-72
2023/12/18 00:58:29;;;;;;;;;;;5.50;99.90;;;;;;2617744;54;19946;-74
2023/12/18 01:00:59;;;;;;;;;;;5.50;99.90;;;;;;2616949;47;19946;-73
2023/12/18 01:03:29;;;;;;;;;;;5.50;99.90;;;;;;2616310;47;19943;-75
2023/12/18 01:05:58;;;;;;;;;;;5.50;99.90;;;;;;2615613;54;19958;-73
2023/12/18 01:08:28;;;;;;;;;;;5.50;99.90;;;;;;2616426;54;19946;-72
2023/12/18 01:10:58;;;;;;;;;;;5.40;99.90;;;;;;2615567;54;20011;-73
2023/12/18 01:13:30;;;;;;;;;;;5.40;99.90;;;;;;2616762;47;19962;-73
2023/12/18 01:16:00;;;;;;;;;;;5.30;99.90;;;;;;2613628;54;19935;-73
2023/12/18 01:18:29;;;;;;;;;;;5.20;99.90;;;;;;2616378;54;19954;-73
2023/12/18 01:20:59;;;;;;;;;;;5.20;99.90;;;;;;2616227;54;19959;-73
2023/12/18 01:23:29;;;;;;;;;;;5.20;99.90;;;;;;2613677;47;20022;-73
2023/12/18 01:25:58;;;;;;;;;;;5.10;99.90;;;;;;2615343;47;19939;-73
2023/12/18 01:28:30;;;;;;;;;;;5.10;99.90;;;;;;2616818;47;19982;-73
2023/12/18 01:31:00;;;;;;;;;;;5.60;99.90;;;;;;2615106;54;19950;-74
2023/12/18 01:33:30;;;;;;;;;;;5.00;99.90;;;;;;2616578;47;19954;-73
2023/12/18 01:36:00;;;;;;;;;;;5.00;99.90;;;;;;2615314;54;19946;-72
2023/12/18 01:38:29;;;;;;;;;;;5.00;99.90;;;;;;2615582;47;19938;-72
2023/12/18 01:40:59;;;;;;;;;;;4.90;99.90;;;;;;2615229;39;20357;-73
2023/12/18 01:43:31;;;;;;;;;;;4.80;99.90;;;;;;2612202;39;20479;-72
2023/12/18 01:46:01;;;;;;;;;;;4.90;99.90;;;;;;2614134;54;19958;-72
2023/12/18 01:48:32;;;;;;;;;;;4.70;99.90;;;;;;2617724;47;19950;-73
2023/12/18 01:53:44;;;;;;;;;;;4.70;99.90;;;;;;2609216;54;19958;-73
2023/12/18 01:56:15;;;;;;;;;;;5.50;99.90;;;;;;2614564;47;19947;-72
2023/12/18 01:58:49;;;;;;;;;;;4.70;99.90;;;;;;2616153;47;20468;-73
2023/12/18 02:01:19;;;;;;;;;;;5.10;99.90;;;;;;2611737;39;20705;-73
2023/12/18 02:03:49;;;;;;;;;;;4.70;99.90;;;;;;2615141;47;19946;-72
2023/12/18 02:06:19;;;;;;;;;;;4.60;99.90;;;;;;2616741;47;20038;-73
2023/12/18 02:08:48;;;;;;;;;;;4.60;99.90;;;;;;2617189;47;19953;-71
2023/12/18 02:11:18;;;;;;;;;;;4.50;99.90;;;;;;2616071;47;19958;-72
2023/12/18 02:13:50;;;;;;;;;;;4.50;99.90;;;;;;2613187;54;19946;-73
2023/12/18 02:16:20;;;;;;;;;;;4.40;99.90;;;;;;2615978;47;20034;-73
2023/12/18 02:18:49;;;;;;;;;;;4.30;99.90;;;;;;2615602;46;19966;-72
2023/12/18 02:21:23;;;;;;;;;;;4.30;99.90;;;;;;2614567;54;19958;-72
2023/12/18 02:23:55;;;;;;;;;;;4.40;99.90;;;;;;2614807;47;19994;-72
2023/12/18 02:26:25;;;;;;;;;;;4.40;99.90;;;;;;2617193;47;19942;-72
2023/12/18 02:28:54;;;;;;;;;;;4.40;99.90;;;;;;2615605;47;19946;-72
2023/12/18 02:31:24;;;;;;;;;;;4.40;99.90;;;;;;2616260;54;19947;-72
2023/12/18 02:33:54;;;;;;;;;;;4.40;99.90;;;;;;2614988;47;19945;-73
2023/12/18 02:36:23;;;;;;;;;;;4.40;99.90;;;;;;2616331;54;19989;-73
2023/12/18 02:38:55;;;;;;;;;;;4.60;99.90;;;;;;2614574;47;19950;-73
2023/12/18 02:41:25;;;;;;;;;;;4.30;99.90;;;;;;2617481;50;19942;-73
2023/12/18 02:43:56;;;;;;;;;;;4.30;99.90;;;;;;2614030;47;19945;-73
2023/12/18 02:46:26;;;;;;;;;;;4.30;99.90;;;;;;2617033;54;19953;-73
2023/12/18 02:48:56;;;;;;;;;;;4.20;99.90;;;;;;2616348;47;19947;-72
2023/12/18 02:51:26;;;;;;;;;;;4.20;99.90;;;;;;2597367;39;20366;-78
2023/12/18 02:53:58;;;;;;;;;;;4.00;99.90;;;;;;2625758;39;20289;-78
2023/12/18 02:56:28;;;;;;;;;;;4.20;99.90;;;;;;2624700;47;19962;-79
2023/12/18 02:58:58;;;;;;;;;;;4.30;99.90;;;;;;2622726;47;19941;-78
2023/12/18 03:01:28;;;;;;;;;;;4.20;99.90;;;;;;2622725;47;20013;-78
2023/12/18 03:03:58;;;;;;;;;;;4.50;99.90;;;;;;2623597;54;19964;-78
2023/12/18 03:06:28;;;;;;;;;;;4.30;99.90;;;;;;2628569;47;19943;-79
2023/12/18 03:09:01;;;;;;;;;;;4.30;99.90;;;;;;2625670;47;19946;-77
2023/12/18 03:11:31;;;;;;;;;;;4.30;99.90;;;;;;2625995;39;20431;-77
2023/12/18 03:14:01;;;;;;;;;;;4.20;99.90;;;;;;2624151;47;19958;-78
2023/12/18 03:16:31;;;;;;;;;;;4.30;99.90;;;;;;2623851;47;19943;-78
2023/12/18 03:19:00;;;;;;;;;;;4.50;99.90;;;;;;2622877;54;19977;-78
2023/12/18 03:21:30;;;;;;;;;;;4.30;99.90;;;;;;2595477;47;20863;-72
2023/12/18 03:24:03;;;;;;;;;;;4.50;99.90;;;;;;2609504;54;19954;-72
2023/12/18 03:26:32;;;;;;;;;;;4.30;99.90;;;;;;2616163;47;19955;-72
2023/12/18 03:29:02;;;;;;;;;;;4.20;99.90;;;;;;2616705;47;19935;-72
2023/12/18 03:31:32;;;;;;;;;;;4.20;99.90;;;;;;2615842;47;19941;-72
2023/12/18 03:34:01;;;;;;;;;;;4.20;99.90;;;;;;2612728;47;19998;-74
2023/12/18 03:39:04;;;;;;;;;;;4.20;99.90;;;;;;2632772;54;19950;-94
2023/12/18 03:41:34;;;;;;;;;;;4.10;99.90;;;;;;2617868;47;19950;-73
2023/12/18 03:44:03;;;;;;;;;;;4.10;99.90;;;;;;2617500;47;20033;-73
2023/12/18 03:46:33;;;;;;;;;;;4.40;99.90;;;;;;2618987;47;19939;-73
2023/12/18 03:49:03;;;;;;;;;;;4.10;99.90;;;;;;2616199;47;19938;-73
2023/12/18 03:51:33;;;;;;;;;;;4.10;99.90;;;;;;2617815;47;19946;-73
2023/12/18 03:54:05;;;;;;;;;;;4.10;99.90;;;;;;2615236;47;19954;-73
2023/12/18 03:56:34;;;;;;;;;;;4.10;99.90;;;;;;2616635;47;19943;-73
2023/12/18 03:59:04;;;;;;;;;;;4.10;99.90;;;;;;2617535;54;19934;-73
2023/12/18 04:01:34;;;;;;;;;;;4.10;99.90;;;;;;2617366;47;19949;-73
2023/12/18 04:04:04;;;;;;;;;;;4.10;99.90;;;;;;2616884;47;19969;-73
2023/12/18 04:06:34;;;;;;;;;;;4.10;99.90;;;;;;2616432;54;19958;-73
2023/12/18 04:09:06;;;;;;;;;;;4.00;99.90;;;;;;2617858;54;19950;-73
2023/12/18 04:11:36;;;;;;;;;;;4.00;99.90;;;;;;2618111;54;20151;-73
2023/12/18 04:14:05;;;;;;;;;;;4.00;99.90;;;;;;2616998;47;19939;-73
2023/12/18 04:16:35;;;;;;;;;;;4.10;99.90;;;;;;2618265;49;19990;-73
2023/12/18 04:19:05;;;;;;;;;;;4.10;99.90;;;;;;2619245;47;19947;-73
2023/12/18 04:21:35;;;;;;;;;;;4.10;99.90;;;;;;2618368;47;20465;-73
2023/12/18 04:24:07;;;;;;;;;;;4.10;99.90;;;;;;2616782;54;19953;-73
2023/12/18 04:26:37;;;;;;;;;;;4.00;99.90;;;;;;2616984;47;19947;-73
2023/12/18 04:29:06;;;;;;;;;;;4.10;99.90;;;;;;2618280;39;20318;-73
2023/12/18 04:31:36;;;;;;;;;;;4.10;99.90;;;;;;2615290;47;19954;-73
2023/12/18 04:34:06;;;;;;;;;;;4.10;99.90;;;;;;2617472;47;19946;-73
2023/12/18 04:36:39;;;;;;;;;;;4.10;99.90;;;;;;2617317;47;20442;-73
2023/12/18 04:39:12;;;;;;;;;;;4.10;99.90;;;;;;2617075;46;19958;-73
2023/12/18 04:41:41;;;;;;;;;;;4.10;99.90;;;;;;2617567;47;19946;-72
2023/12/18 04:44:11;;;;;;;;;;;4.40;99.90;;;;;;2614013;54;19946;-70
2023/12/18 04:46:41;;;;;;;;;;;4.10;99.90;;;;;;2616998;54;19954;-68
2023/12/18 04:49:12;;;;;;;;;;;4.10;99.90;;;;;;2616671;47;19965;-69
2023/12/18 04:51:42;;;;;;;;;;;4.10;99.90;;;;;;2616824;54;19989;-70
2023/12/18 04:54:15;;;;;;;;;;;4.00;99.90;;;;;;2616502;39;20516;-70
2023/12/18 04:56:44;;;;;;;;;;;4.10;99.90;;;;;;2613022;54;19935;-70
2023/12/18 04:59:14;;;;;;;;;;;4.10;99.90;;;;;;2616738;47;20457;-70
2023/12/18 05:01:44;;;;;;;;;;;4.10;99.90;;;;;;2615113;47;19953;-69
2023/12/18 05:04:13;;;;;;;;;;;4.10;99.90;;;;;;2613642;54;19949;-67
2023/12/18 05:06:43;;;;;;;;;;;4.10;99.90;;;;;;2613041;49;19939;-69
2023/12/18 05:09:16;;;;;;;;;;;5.20;99.90;;;;;;2614976;47;19954;-70
2023/12/18 05:11:45;;;;;;;;;;;4.10;99.90;;;;;;2616408;54;19947;-70
2023/12/18 05:14:15;;;;;;;;;;;4.10;99.90;;;;;;2615160;54;19939;-72
2023/12/18 05:16:45;;;;;;;;;;;4.10;99.90;;;;;;2613786;54;19962;-69
2023/12/18 05:19:14;;;;;;;;;;;4.10;99.90;;;;;;2615288;47;19982;-70
2023/12/18 05:21:44;;;;;;;;;;;4.00;99.90;;;;;;2616105;47;19939;-71
2023/12/18 05:24:16;;;;;;;;;;;4.00;99.90;;;;;;2613978;54;20074;-70
2023/12/18 05:26:46;;;;;;;;;;;4.00;99.90;;;;;;2616785;47;19953;-68
2023/12/18 05:29:16;;;;;;;;;;;4.00;99.90;;;;;;2613575;54;19966;-71
2023/12/18 05:31:45;;;;;;;;;;;4.00;99.90;;;;;;2613375;47;20496;-70
2023/12/18 05:34:15;;;;;;;;;;;4.00;99.90;;;;;;2616124;54;19950;-70
2023/12/18 05:36:45;;;;;;;;;;;4.00;99.90;;;;;;2617437;39;20360;-70
2023/12/18 05:39:18;;;;;;;;;;;3.90;99.90;;;;;;2615284;39;20342;-70
2023/12/18 05:41:48;;;;;;;;;;;4.00;99.90;;;;;;2616134;47;19958;-71
2023/12/18 05:44:17;;;;;;;;;;;4.00;99.90;;;;;;2614505;54;19939;-71
2023/12/18 05:46:47;;;;;;;;;;;4.20;99.90;;;;;;2615226;47;19946;-70
2023/12/18 05:49:16;;;;;;;;;;;4.00;99.90;;;;;;2615638;39;20610;-70
2023/12/18 05:51:46;;;;;;;;;;;4.00;99.90;;;;;;2612769;47;19947;-69
2023/12/18 05:54:19;;;;;;;;;;;4.00;99.90;;;;;;2612759;39;20401;-68
2023/12/18 05:56:49;;;;;;;;;;;4.00;99.90;;;;;;2614397;54;19947;-70
2023/12/18 05:59:19;;;;;;;;;;;4.00;99.90;;;;;;2613474;47;19966;-70
2023/12/18 06:01:48;;;;;;;;;;;4.00;99.90;;;;;;2614166;47;19962;-71
2023/12/18 06:04:18;;;;;;;;;;;4.00;99.90;;;;;;2614310;47;19955;-70
2023/12/18 06:06:48;;;;;;;;;;;4.10;99.90;;;;;;2613852;39;20530;-70
2023/12/18 06:09:20;;;;;;;;;;;4.10;99.90;;;;;;2612880;39;20365;-70
2023/12/18 06:11:50;;;;;;;;;;;4.10;99.90;;;;;;2615978;31;20446;-71
2023/12/18 06:14:20;;;;;;;;;;;4.00;99.90;;;;;;2614975;51;19938;-70
2023/12/18 06:16:49;;;;;;;;;;;4.10;99.90;;;;;;2615408;47;19951;-71
2023/12/18 06:19:19;;;;;;;;;;;4.10;99.90;;;;;;2616211;48;19954;-69
2023/12/18 06:21:49;;;;;;;;;;;4.00;99.90;;;;;;2615996;54;19954;-72
2023/12/18 06:24:21;;;;;;;;;;;4.00;99.90;;;;;;2612545;47;19985;-71
2023/12/18 06:26:52;;;;;;;;;;;3.90;99.90;;;;;;2614085;53;19955;-71
2023/12/18 06:29:22;;;;;;;;;;;3.90;99.90;;;;;;2613770;54;20037;-71
2023/12/18 06:31:52;;;;;;;;;;;3.90;99.90;;;;;;2616473;47;19953;-70
2023/12/18 06:34:22;;;;;;;;;;;3.90;99.90;;;;;;2615116;54;19950;-72
2023/12/18 06:36:52;;;;;;;;;;;3.90;99.90;;;;;;2615258;54;19958;-70
2023/12/18 06:39:24;;;;;;;;;;;3.90;99.90;;;;;;2614234;54;20599;-70
2023/12/18 06:41:53;;;;;;;;;;;4.00;99.90;;;;;;2616367;47;19950;-71
2023/12/18 06:44:23;;;;;;;;;;;4.00;99.90;;;;;;2615123;47;19947;-73
2023/12/18 06:46:53;;;;;;;;;;;4.00;99.90;;;;;;2616426;48;20484;-70
2023/12/18 06:49:22;;;;;;;;;;;4.00;99.90;;;;;;2615392;54;19954;-71
2023/12/18 06:51:52;;;;;;;;;;;3.90;99.90;;;;;;2616137;54;19939;-70
2023/12/18 06:54:26;;;;;;;;;;;3.90;99.90;;;;;;2614557;47;19997;-70
2023/12/18 06:56:55;;;;;;;;;;;3.80;99.90;;;;;;2615446;50;20005;-70
2023/12/18 06:59:25;;;;;;;;;;;3.80;99.90;;;;;;2615103;54;21023;-71
2023/12/18 07:01:55;;;;;;;;;;;3.80;99.90;;;;;;2614380;54;19991;-74
2023/12/18 07:04:25;;;;;;;;;;;3.90;99.90;;;;;;2616903;47;19953;-74
2023/12/18 07:06:54;;;;;;;;;;;3.90;99.90;;;;;;2616259;47;19962;-73
2023/12/18 07:09:27;;;;;;;;;;;3.90;99.90;;;;;;2615317;47;19945;-74
2023/12/18 07:11:56;;;;;;;;;;;3.90;99.90;;;;;;2617094;54;19974;-73
2023/12/18 07:14:26;;;;;;;;;;;3.90;99.90;;;;;;2615616;46;19968;-75
2023/12/18 07:16:56;;;;;;;;;;;3.90;99.90;;;;;;2615405;54;19939;-73
2023/12/18 07:19:26;;;;;;;;;;;3.90;99.90;;;;;;2618073;39;20361;-73
2023/12/18 07:21:56;;;;;;;;;;;4.00;99.90;;;;;;2617109;54;19946;-73
2023/12/18 07:24:28;;;;;;;;;;;4.00;99.90;;;;;;2616322;47;19953;-72
2023/12/18 07:26:59;;;;;;;;;;;4.00;99.90;;;;;;2615508;47;20038;-70
2023/12/18 07:29:29;;;;;;;;;;;4.10;99.90;;;;;;2613955;54;19952;-71
2023/12/18 07:31:59;;;;;;;;;;;4.10;99.90;;;;;;2616649;47;19938;-70
2023/12/18 07:34:28;;;;;;;;;;;4.30;99.90;;;;;;2615975;47;19954;-71
2023/12/18 07:36:58;;;;;;;;;;;4.10;99.90;;;;;;2616432;47;20506;-71
2023/12/18 07:39:31;;;;;;;;;;;4.00;99.90;;;;;;2615992;54;19953;-71
2023/12/18 07:42:01;;;;;;;;;;;4.00;99.90;;;;;;2616324;47;19939;-70
2023/12/18 07:44:30;;;;;;;;;;;4.00;99.90;;;;;;2613508;54;19935;-71
2023/12/18 07:47:00;;;;;;;;;;;4.00;99.90;;;;;;2617253;39;20339;-71
2023/12/18 07:49:30;;;;;;;;;;;4.00;99.90;;;;;;2615860;47;19953;-70
2023/12/18 07:52:00;;;;;;;;;;;4.00;99.90;;;;;;2615802;54;19946;-70
2023/12/18 07:54:32;;;;;;;;;;;4.10;99.90;;;;;;2614306;46;19939;-71
2023/12/18 07:57:02;;;;;;;;;;;4.00;99.90;;;;;;2615135;47;19946;-71
2023/12/18 07:59:32;;;;;;;;;;;4.00;99.90;;;;;;2615585;54;19947;-70
2023/12/18 08:02:02;;;;;;;;;;;4.00;99.90;;;;;;2613909;47;19945;-71
2023/12/18 08:04:31;;;;;;;;;;;3.80;99.90;;;;;;2616043;48;19946;-73
2023/12/18 08:07:01;;;;;;;;;;;3.80;99.90;;;;;;2614570;47;20461;-69
2023/12/18 08:09:33;;;;;;;;;;;3.80;99.90;;;;;;2617095;47;20634;-70
2023/12/18 08:12:03;;;;;;;;;;;3.90;99.90;;;;;;2603401;54;19946;-69
2023/12/18 08:14:33;;;;;;;;;;;3.90;99.90;;;;;;2598726;39;20223;-69
2023/12/18 08:17:03;;;;;;;;;;;3.90;99.90;;;;;;2601189;47;19957;-70
2023/12/18 08:19:33;;;;;;;;;;;3.80;99.90;;;;;;2599243;47;19955;-71
2023/12/18 08:22:03;;;;;;;;;;;3.80;99.90;;;;;;2596739;47;19954;-70
2023/12/18 08:24:36;;;;;;;;;;;3.80;99.90;;;;;;2595192;54;19958;-70
2023/12/18 08:27:06;;;;;;;;;;;3.70;99.90;;;;;;2595736;47;19951;-71
2023/12/18 08:29:35;;;;;;;;;;;3.80;99.90;;;;;;2595541;46;19951;-71
2023/12/18 08:32:05;;;;;;;;;;;3.70;99.90;;;;;;2595908;54;19946;-70
2023/12/18 08:34:35;;;;;;;;;;;3.60;99.90;;;;;;2596669;47;19994;-70
2023/12/18 08:37:06;;;;;;;;;;;3.60;99.90;;;;;;2596015;39;20374;-70
2023/12/18 08:39:38;;;;;;;;;;;3.60;99.90;;;;;;2594916;46;20026;-70
2023/12/18 08:42:08;;;;;;;;;;;3.60;99.90;;;;;;2595649;47;19951;-69
2023/12/18 08:44:38;;;;;;;;;;;3.70;99.90;;;;;;2597295;54;20769;-71
2023/12/18 08:47:08;;;;;;;;;;;5.20;99.90;;;;;;2596344;47;20438;-70
2023/12/18 08:49:38;;;;;;;;;;;3.80;99.90;;;;;;2596062;54;19955;-72
2023/12/18 08:52:08;;;;;;;;;;;3.80;99.90;;;;;;2596780;47;19951;-70
2023/12/18 08:54:40;;;;;;;;;;;3.70;99.90;;;;;;2594065;47;19958;-71
2023/12/18 08:57:09;;;;;;;;;;;3.80;99.90;;;;;;2594448;47;19946;-71
2023/12/18 08:59:39;;;;;;;;;;;3.60;99.90;;;;;;2596202;47;19954;-70
2023/12/18 09:02:10;;;;;;;;;;;3.60;99.90;;;;;;2594036;54;19950;-70
2023/12/18 09:04:39;;;;;;;;;;;3.60;99.90;;;;;;2594639;54;20030;-71
2023/12/18 09:07:09;;;;;;;;;;;3.50;99.90;;;;;;2596131;54;19962;-70
2023/12/18 09:09:43;;;;;;;;;;;3.50;99.90;;;;;;2593916;54;19946;-71
2023/12/18 09:12:13;;;;;;;;;;;3.60;99.90;;;;;;2595251;47;19954;-71
2023/12/18 09:14:43;;;;;;;;;;;3.50;99.90;;;;;;2596118;54;19947;-72
2023/12/18 09:17:13;;;;;;;;;;;3.20;99.90;;;;;;2595465;48;19951;-72
2023/12/18 09:19:42;;;;;;;;;;;3.60;99.90;;;;;;2595342;47;21196;-71
2023/12/18 09:22:12;;;;;;;;;;;3.50;99.90;;;;;;2592488;54;20465;-71
2023/12/18 09:24:45;;;;;;;;;;;3.50;99.90;;;;;;2594223;54;19957;-70
2023/12/18 09:27:14;;;;;;;;;;;3.50;99.90;;;;;;2593242;47;19959;-71
2023/12/18 09:29:44;;;;;;;;;;;3.60;99.90;;;;;;2595669;54;20457;-71
2023/12/18 09:32:15;;;;;;;;;;;3.50;99.90;;;;;;2594300;54;20441;-71
2023/12/18 09:34:44;;;;;;;;;;;3.50;99.90;;;;;;2595178;49;19951;-71
2023/12/18 09:37:14;;;;;;;;;;;2.70;99.90;;;;;;2595542;47;20045;-72
2023/12/18 09:39:47;;;;;;;;;;;3.50;99.90;;;;;;2595532;54;19951;-71
2023/12/18 09:42:17;;;;;;;;;;;3.40;99.90;;;;;;2595952;47;19973;-71
2023/12/18 09:44:49;;;;;;;;;;;3.50;99.90;;;;;;2594870;54;19962;-70
2023/12/18 09:47:19;;;;;;;;;;;3.40;99.90;;;;;;2595295;54;19943;-70
2023/12/18 09:49:49;;;;;;;;;;;3.50;99.90;;;;;;2596580;39;20131;-70
2023/12/18 09:52:20;;;;;;;;;;;3.20;99.90;;;;;;2596915;54;19939;-71
2023/12/18 09:54:52;;;;;;;;;;;3.20;99.90;;;;;;2593239;47;19938;-70
2023/12/18 09:57:22;;;;;;;;;;;3.30;99.90;;;;;;2594914;54;19981;-71
2023/12/18 09:59:52;;;;;;;;;;;3.40;99.90;;;;;;2596291;54;19951;-71
2023/12/18 10:02:21;;;;;;;;;;;3.40;99.90;;;;;;2596481;47;19950;-72
2023/12/18 10:04:51;;;;;;;;;;;3.50;99.90;;;;;;2595749;47;19957;-72
2023/12/18 10:07:21;;;;;;;;;;;3.50;99.90;;;;;;2594919;47;19966;-70
2023/12/18 10:09:53;;;;;;;;;;;3.70;99.90;;;;;;2595090;54;19961;-70
2023/12/18 10:12:23;;;;;;;;;;;3.70;99.90;;;;;;2593280;51;19950;-72
2023/12/18 10:14:53;;;;;;;;;;;3.80;99.90;;;;;;2590365;54;20147;-70
2023/12/18 10:17:23;;;;;;;;;;;3.80;99.90;;;;;;2594125;54;20473;-71
2023/12/18 10:19:53;;;;;;;;;;;4.00;99.90;;;;;;2594123;47;19959;-71
2023/12/18 10:22:23;;;;;;;;;;;3.90;99.90;;;;;;2594049;47;20071;-70
2023/12/18 10:24:56;;;;;;;;;;;3.90;99.90;;;;;;2594383;54;19951;-70
2023/12/18 10:27:26;;;;;;;;;;;3.90;99.90;;;;;;2596478;47;20466;-72
2023/12/18 10:29:57;;;;;;;;;;;3.80;99.90;;;;;;2596594;47;20881;-70
2023/12/18 10:32:28;;;;;;;;;;;3.80;99.90;;;;;;2595768;54;19946;-71
2023/12/18 10:34:58;;;;;;;;;;;3.80;99.90;;;;;;2594425;47;19938;-71
2023/12/18 10:37:30;;;;;;;;;;;3.90;99.90;;;;;;2593404;54;19981;-70
2023/12/18 10:40:06;;;;;;;;;;;3.20;99.90;;;;;;2595233;54;19958;-70
2023/12/18 10:42:37;;;;;;;;;;;4.00;99.90;;;;;;2595140;54;19957;-71
2023/12/18 10:45:08;;;;;;;;;;;4.10;99.90;;;;;;2596247;49;19986;-71
2023/12/18 10:47:39;;;;;;;;;;;4.00;99.90;;;;;;2593604;54;19954;-71
2023/12/18 10:50:10;;;;;;;;;;;4.00;99.90;;;;;;2594012;47;20022;-72
2023/12/18 10:52:42;;;;;;;;;;;4.00;99.90;;;;;;2594676;51;19947;-71
2023/12/18 10:55:16;;;;;;;;;;;4.10;99.90;;;;;;2595103;47;20125;-71
2023/12/18 10:57:46;;;;;;;;;;;4.10;99.90;;;;;;2596066;54;19947;-72
2023/12/18 11:00:17;;;;;;;;;;;4.10;99.90;;;;;;2596033;39;20397;-71
2023/12/18 11:02:49;;;;;;;;;;;4.00;99.90;;;;;;2593636;47;19950;-71
2023/12/18 11:05:19;;;;;;;;;;;4.00;99.90;;;;;;2595214;54;19978;-71
2023/12/18 11:07:49;;;;;;;;;;;3.80;99.90;;;;;;2593562;39;20700;-72
2023/12/18 14:06:22;;;;;;;;;;;3.80;99.90;;;;;;2624639;46;20093;-78
2023/12/18 14:08:52;;;;;;;;;;;4.80;99.90;;;;;;2628788;54;19939;-79
2023/12/18 14:11:22;;;;;;;;;;;4.80;99.90;;;;;;2634170;31;20594;-80
2023/12/18 14:13:52;;;;;;;;;;;4.60;99.90;;;;;;2629913;47;19950;-80
2023/12/18 14:16:23;;;;;;;;;;;4.70;99.90;;;;;;2628570;54;19943;-78
2023/12/18 14:18:53;;;;;;;;;;;4.70;99.90;;;;;;2628768;47;19954;-79
2023/12/18 14:21:27;;;;;;;;;;;4.60;99.90;;;;;;2627444;46;19942;-78
2023/12/18 14:23:57;;;;;;;;;;;4.70;99.90;;;;;;2626436;39;19975;-77
2023/12/18 14:26:27;;;;;;;;;;;4.70;99.90;;;;;;2626550;47;19974;-79
2023/12/18 14:28:57;;;;;;;;;;;4.70;99.90;;;;;;2628870;54;19973;-80
2023/12/18 14:31:27;;;;;;;;;;;4.80;99.90;;;;;;2629194;47;19991;-78
2023/12/18 14:33:57;;;;;;;;;;;4.80;99.90;;;;;;2623323;47;19946;-77
2023/12/18 14:36:30;;;;;;;;;;;4.70;99.90;;;;;;2636005;31;20792;-83
2023/12/18 14:39:01;;;;;;;;;;;4.70;99.90;;;;;;2629193;47;19927;-81
2023/12/18 14:41:31;;;;;;;;;;;4.90;99.90;;;;;;2629227;47;19954;-82
2023/12/18 14:44:01;;;;;;;;;;;4.70;99.90;;;;;;2628956;54;19927;-81
2023/12/18 14:46:31;;;;;;;;;;;4.60;99.90;;;;;;2628616;47;19927;-81
2023/12/18 14:49:01;;;;;;;;;;;4.70;99.90;;;;;;2632420;31;20815;-84
2023/12/18 14:51:33;;;;;;;;;;;6.40;99.90;;;;;;2628579;47;20051;-80
2023/12/18 14:54:03;;;;;;;;;;;4.70;99.90;;;;;;2634539;39;20574;-83
2023/12/18 14:56:33;;;;;;;;;;;4.60;99.90;;;;;;2628405;47;19973;-81
2023/12/18 14:59:06;;;;;;;;;;;4.60;99.90;;;;;;2628604;54;19964;-81
2023/12/18 15:01:36;;;;;;;;;;;4.60;99.90;;;;;;2626973;54;19934;-80
2023/12/18 15:04:06;;;;;;;;;;;4.60;99.90;;;;;;2626553;47;20473;-80
2023/12/18 15:06:47;;;;;;;;;;;4.60;99.90;;;;;;2622051;54;19931;-76
2023/12/18 15:09:19;;;;;;;;;;;5.10;99.90;;;;;;2625554;54;19978;-77
2023/12/18 15:11:49;;;;;;;;;;;4.60;99.90;;;;;;2616852;54;19946;-78
2023/12/18 15:14:18;;;;;;;;;;;4.70;99.90;;;;;;2621444;47;19950;-78
2023/12/18 15:16:49;;;;;;;;;;;4.70;99.90;;;;;;2625352;47;19991;-78
2023/12/18 15:19:19;;;;;;;;;;;4.70;99.90;;;;;;2620685;39;20375;-79
2023/12/18 15:21:52;;;;;;;;;;;4.70;99.90;;;;;;2618529;54;19939;-78
2023/12/18 15:24:22;;;;;;;;;;;4.80;99.90;;;;;;2627689;47;19987;-83
2023/12/18 15:26:52;;;;;;;;;;;4.70;99.90;;;;;;2627775;47;19943;-79
2023/12/18 15:29:22;;;;;;;;;;;4.80;99.90;;;;;;2631317;39;20008;-82
2023/12/18 15:31:52;;;;;;;;;;;4.70;99.90;;;;;;2623252;47;19992;-77
2023/12/18 15:34:22;;;;;;;;;;;4.70;99.90;;;;;;2627596;47;19943;-78
2023/12/18 15:36:55;;;;;;;;;;;4.70;99.90;;;;;;2624953;54;19963;-77
2023/12/18 15:39:24;;;;;;;;;;;4.80;99.90;;;;;;2619799;47;19957;-76
2023/12/18 15:41:55;;;;;;;;;;;4.80;99.90;;;;;;2617413;54;20442;-77
2023/12/18 15:44:25;;;;;;;;;;;5.00;99.90;;;;;;2618980;47;19946;-76
2023/12/18 15:46:55;;;;;;;;;;;4.70;99.90;;;;;;2617947;47;19996;-76
2023/12/18 15:49:26;;;;;;;;;;;4.70;99.90;;;;;;2617477;47;20057;-75
2023/12/18 15:52:00;;;;;;;;;;;4.60;99.90;;;;;;2617716;39;20681;-78
2023/12/18 15:54:30;;;;;;;;;;;3.60;99.90;;;;;;2618993;39;20072;-77
2023/12/18 15:57:00;;;;;;;;;;;4.70;99.90;;;;;;2619943;47;19962;-76
2023/12/18 15:59:30;;;;;;;;;;;4.70;99.90;;;;;;2621518;47;20006;-77
2023/12/18 16:02:00;;;;;;;;;;;4.70;99.90;;;;;;2620906;54;19966;-77
2023/12/18 16:04:30;;;;;;;;;;;4.60;99.90;;;;;;2619496;54;19949;-77
2023/12/18 16:07:03;;;;;;;;;;;4.60;99.90;;;;;;2619311;54;19946;-77
2023/12/18 16:09:32;;;;;;;;;;;4.60;99.90;;;;;;2620253;47;19990;-77
2023/12/18 16:12:02;;;;;;;;;;;4.70;99.90;;;;;;2619533;54;19981;-77
2023/12/18 16:14:32;;;;;;;;;;;4.70;99.90;;;;;;2620197;47;19939;-77
2023/12/18 16:17:06;;;;;;;;;;;4.70;99.90;;;;;;2625153;47;19991;-75
2023/12/18 16:19:35;;;;;;;;;;;4.40;99.90;;;;;;2623582;39;20438;-76
2023/12/18 16:22:09;;;;;;;;;;;4.60;99.90;;;;;;2618516;47;20053;-76
2023/12/18 16:24:39;;;;;;;;;;;4.60;99.90;;;;;;2619748;47;20067;-77
2023/12/18 16:27:09;;;;;;;;;;;4.60;99.90;;;;;;2619630;46;20523;-77
2023/12/18 16:29:40;;;;;;;;;;;5.00;99.90;;;;;;2619734;54;19954;-77
2023/12/18 16:32:11;;;;;;;;;;;4.50;99.90;;;;;;2619325;47;19949;-76
2023/12/18 16:34:41;;;;;;;;;;;4.40;99.90;;;;;;2619393;39;20332;-76
2023/12/18 16:37:14;;;;;;;;;;;3.50;99.90;;;;;;2619662;49;19963;-76
2023/12/18 16:39:44;;;;;;;;;;;4.60;99.90;;;;;;2625551;47;19949;-77
2023/12/18 16:42:15;;;;;;;;;;;4.40;99.90;;;;;;2625764;47;19953;-76
2023/12/18 16:44:45;;;;;;;;;;;4.40;99.90;;;;;;2620842;54;19947;-77
2023/12/18 16:47:16;;;;;;;;;;;4.40;99.90;;;;;;2619446;46;19939;-77
2023/12/18 16:49:48;;;;;;;;;;;4.40;99.90;;;;;;2619380;47;19990;-77
2023/12/18 16:52:21;;;;;;;;;;;4.40;99.90;;;;;;2618653;54;20090;-77
2023/12/18 16:54:51;;;;;;;;;;;4.40;99.90;;;;;;2618682;47;19950;-76
2023/12/18 16:57:21;;;;;;;;;;;4.50;99.90;;;;;;2620318;54;19954;-77
2023/12/18 16:59:51;;;;;;;;;;;4.40;99.90;;;;;;2621741;54;19993;-76
2023/12/18 17:02:28;;;;;;;;;;;4.40;99.90;;;;;;2624908;54;20516;-77
2023/12/18 17:04:58;;;;;;;;;;;4.40;99.90;;;;;;2624523;54;19946;-82
2023/12/18 17:07:30;;;;;;;;;;;4.40;99.90;;;;;;2624868;46;19946;-77
2023/12/18 17:10:01;;;;;;;;;;;4.40;99.90;;;;;;2625579;54;20702;-77
2023/12/18 17:12:31;;;;;;;;;;;4.50;99.90;;;;;;2625639;47;19946;-78
2023/12/18 17:15:01;;;;;;;;;;;4.40;99.90;;;;;;2626431;46;19950;-78
2023/12/18 17:17:31;;;;;;;;;;;4.50;99.90;;;;;;2628175;54;19941;-78
2023/12/18 17:20:01;;;;;;;;;;;4.40;99.90;;;;;;2629137;39;20354;-77
2023/12/18 17:22:34;;;;;;;;;;;4.40;99.90;;;;;;2627518;54;19950;-79
2023/12/18 17:25:04;;;;;;;;;;;5.30;99.90;;;;;;2627076;54;19939;-79
2023/12/18 17:27:34;;;;;;;;;;;4.60;99.90;;;;;;2627507;54;19950;-80
2023/12/18 17:30:04;;;;;;;;;;;4.40;99.90;;;;;;2626062;54;19947;-77
2023/12/18 17:32:33;;;;;;;;;;;4.40;99.90;;;;;;2627483;54;19950;-80
2023/12/18 17:35:03;;;;;;;;;;;4.40;99.90;;;;;;2627602;54;19950;-80
2023/12/18 17:37:36;;;;;;;;;;;4.80;99.90;;;;;;2628053;54;20349;-80
2023/12/18 17:40:07;;;;;;;;;;;4.40;99.90;;;;;;2628803;47;20009;-80
2023/12/18 17:42:37;;;;;;;;;;;4.40;99.90;;;;;;2628466;54;19958;-80
2023/12/18 17:45:08;;;;;;;;;;;4.40;99.90;;;;;;2628785;54;19971;-80
2023/12/18 17:47:38;;;;;;;;;;;4.30;99.90;;;;;;2628132;54;20077;-78
2023/12/18 17:50:10;;;;;;;;;;;4.20;99.90;;;;;;2622583;46;19946;-76